Time;durP1;ratioP1;P1;durP2;ratioP2;P2;SDS_P1;SDS_P2;PMS_P1;PMS_P2;Temp;Humidity;BMP_temperature;BMP_pressure;BME280_temperature;BME280_humidity;BME280_pressure;Samples;Min_cycle;Max_cycle;Signal;HPM_P1;HPM_P2
2022/07/02 00:00:17;;;;;;;7.17;4.83;;;13.30;99.90;13.30;101227.00;;;;4877031;28;111568;-60
2022/07/02 00:02:50;;;;;;;6.10;4.27;;;13.30;99.90;13.30;101229.00;;;;4877633;28;92838;-60
2022/07/02 00:05:21;;;;;;;3.37;3.07;;;13.30;99.90;13.30;101221.00;;;;4873632;28;93567;-60
2022/07/02 00:07:47;;;;;;;6.20;5.03;;;13.20;99.90;13.20;101227.00;;;;4876569;28;93850;-60
2022/07/02 00:10:14;;;;;;;6.83;3.73;;;13.20;99.90;13.20;101235.00;;;;4892075;28;108841;-60
2022/07/02 00:12:40;;;;;;;9.27;5.27;;;13.20;99.90;13.20;101230.00;;;;4896485;28;99126;-60
2022/07/02 00:15:10;;;;;;;4.53;4.00;;;13.20;99.90;13.10;101234.00;;;;4894952;28;93037;-60
2022/07/02 00:17:38;;;;;;;7.63;5.07;;;13.10;99.90;13.10;101241.00;;;;4896397;28;92890;-60
2022/07/02 00:20:05;;;;;;;5.80;4.33;;;13.10;99.90;13.10;101236.00;;;;4893024;28;92751;-59
2022/07/02 00:22:32;;;;;;;4.13;3.67;;;13.10;99.90;13.10;101237.00;;;;4894952;28;101139;-59
2022/07/02 00:24:58;;;;;;;4.03;3.33;;;13.10;99.90;13.00;101240.00;;;;4877022;28;122106;-60
2022/07/02 00:27:30;;;;;;;4.53;3.90;;;13.00;99.90;13.00;101241.00;;;;4874746;28;123220;-60
2022/07/02 00:30:04;;;;;;;4.10;3.40;;;13.00;99.90;13.00;101248.00;;;;4890836;28;92746;-60
2022/07/02 00:32:34;;;;;;;7.53;4.80;;;13.00;99.90;13.00;101247.00;;;;4895909;28;92724;-59
2022/07/02 00:35:13;;;;;;;3.70;3.17;;;12.90;99.90;12.90;101240.00;;;;4895272;28;107979;-60
2022/07/02 00:37:39;;;;;;;7.00;4.10;;;12.90;99.90;12.90;101238.00;;;;4895426;28;93643;-60
2022/07/02 00:40:07;;;;;;;5.77;4.03;;;12.90;99.90;12.90;101237.00;;;;4894726;28;110505;-61
2022/07/02 00:42:35;;;;;;;10.03;4.47;;;12.90;99.90;12.90;101248.00;;;;4894995;28;92848;-60
2022/07/02 00:45:02;;;;;;;3.47;3.07;;;12.80;99.90;12.80;101234.00;;;;4895712;28;93952;-61
2022/07/02 00:47:30;;;;;;;3.93;3.63;;;12.80;99.90;12.80;101247.00;;;;4894813;28;93808;-60
2022/07/02 00:49:56;;;;;;;4.70;2.90;;;12.80;99.90;12.70;101238.00;;;;4882087;28;92895;-60
2022/07/02 00:52:22;;;;;;;4.67;3.50;;;12.70;99.90;12.70;101234.00;;;;4875252;28;109007;-60
2022/07/02 00:54:48;;;;;;;5.43;4.23;;;12.70;99.90;12.60;101235.00;;;;4883305;28;94213;-59
2022/07/02 00:57:13;;;;;;;5.93;4.70;;;12.70;99.90;12.60;101241.00;;;;4895479;28;92821;-60
2022/07/02 00:59:40;;;;;;;5.43;3.80;;;12.60;99.90;12.60;101248.00;;;;4892601;28;110226;-61
2022/07/02 01:02:10;;;;;;;4.53;3.50;;;12.60;99.90;12.60;101242.00;;;;4877524;28;107785;-61
2022/07/02 01:04:36;;;;;;;3.80;3.03;;;12.60;99.90;12.50;101254.00;;;;4882313;28;120388;-61
2022/07/02 01:07:05;;;;;;;4.00;3.10;;;12.50;99.90;12.50;101254.00;;;;4890318;28;98673;-61
2022/07/02 01:12:25;;;;;;;5.53;3.93;;;12.40;99.90;12.40;101240.00;;;;4876011;28;94012;-60
2022/07/02 01:14:52;;;;;;;3.80;3.23;;;12.40;99.90;12.30;101235.00;;;;4876232;28;94536;-61
2022/07/02 01:17:19;;;;;;;5.60;3.87;;;12.30;99.90;12.30;101239.00;;;;4876261;28;94569;-60
2022/07/02 01:19:45;;;;;;;3.93;3.13;;;12.30;99.90;12.20;101238.00;;;;4868222;28;95270;-61
2022/07/02 01:22:21;;;;;;;5.97;3.03;;;12.30;99.90;12.20;101238.00;;;;4893155;28;92728;-60
2022/07/02 01:24:50;;;;;;;5.57;3.37;;;12.20;99.90;12.20;101240.00;;;;4895286;28;92815;-60
2022/07/02 01:27:18;;;;;;;6.30;3.47;;;12.20;99.90;12.10;101239.00;;;;4887595;28;93707;-60
2022/07/02 01:29:44;;;;;;;4.30;2.90;;;12.10;99.90;12.10;101237.00;;;;4885716;28;91914;-61
2022/07/02 01:32:11;;;;;;;4.07;3.07;;;12.00;99.90;12.10;101242.00;;;;4895304;28;96800;-61
2022/07/02 01:35:08;;;;;;;4.03;3.27;;;12.10;99.90;12.00;101231.00;;;;4892625;28;93289;-60
2022/07/02 01:37:38;;;;;;;5.00;3.63;;;12.10;99.90;12.00;101241.00;;;;4894684;28;94060;-60
2022/07/02 01:40:05;;;;;;;5.60;3.50;;;12.00;99.90;12.00;101239.00;;;;4882418;28;92633;-61
2022/07/02 01:42:31;;;;;;;4.13;2.90;;;12.00;99.90;12.00;101242.00;;;;4875649;28;92627;-60
2022/07/02 01:44:56;;;;;;;5.07;3.93;;;12.00;99.90;11.90;101242.00;;;;4891199;28;122955;-60
2022/07/02 01:47:22;;;;;;;3.17;2.93;;;11.90;99.90;11.90;101235.00;;;;4893518;28;123364;-60
2022/07/02 01:49:48;;;;;;;4.80;4.00;;;11.90;99.90;11.90;101239.00;;;;4884150;28;110666;-61
2022/07/02 01:52:15;;;;;;;2.77;2.47;;;11.90;99.90;11.90;101236.00;;;;4876005;28;92732;-61
2022/07/02 01:54:41;;;;;;;2.63;2.43;;;11.90;99.90;11.80;101237.00;;;;4875397;28;92951;-61
2022/07/02 01:57:07;;;;;;;5.40;3.57;;;11.80;99.90;11.80;101238.00;;;;4875253;28;108101;-60
2022/07/02 01:59:34;;;;;;;4.87;3.30;;;11.80;99.90;11.80;101255.00;;;;4883003;28;93054;-60
2022/07/02 02:02:01;;;;;;;5.33;3.57;;;11.80;99.90;11.70;101254.00;;;;4878982;28;93854;-60
2022/07/02 02:04:27;;;;;;;4.73;3.13;;;11.80;99.90;11.70;101254.00;;;;4881587;28;94674;-60
2022/07/02 02:06:53;;;;;;;3.60;2.50;;;11.70;99.90;11.70;101248.00;;;;4888603;28;122722;-61
2022/07/02 02:09:19;;;;;;;6.00;3.47;;;11.70;99.90;11.70;101258.00;;;;4876118;28;110603;-61
2022/07/02 02:11:46;;;;;;;5.40;2.87;;;11.70;99.90;11.70;101257.00;;;;4876075;28;92846;-60
2022/07/02 02:14:12;;;;;;;3.47;3.17;;;11.70;99.90;11.70;101262.00;;;;4887816;28;94348;-61
2022/07/02 02:16:38;;;;;;;3.27;2.90;;;11.70;99.90;11.70;101263.00;;;;4893987;28;93272;-60
2022/07/02 02:19:04;;;;;;;4.77;2.97;;;11.60;99.90;11.60;101259.00;;;;4892026;28;92289;-61
2022/07/02 02:21:30;;;;;;;4.53;3.20;;;11.60;99.90;11.60;101270.00;;;;4858376;28;93212;-60
2022/07/02 02:23:58;;;;;;;4.03;3.43;;;11.60;99.90;11.60;101271.00;;;;4874148;28;124230;-60
2022/07/02 02:26:24;;;;;;;3.43;2.80;;;11.60;99.90;11.50;101279.00;;;;4874759;28;93840;-61
2022/07/02 02:28:50;;;;;;;5.87;3.43;;;11.60;99.90;11.50;101276.00;;;;4875840;28;92942;-61
2022/07/02 02:31:16;;;;;;;3.23;2.93;;;11.40;99.90;11.50;101282.00;;;;4895395;28;92780;-60
2022/07/02 02:33:42;;;;;;;5.17;3.50;;;11.50;99.90;11.50;101277.00;;;;4892749;28;93998;-61
2022/07/02 02:36:08;;;;;;;3.67;3.17;;;11.50;99.90;11.40;101284.00;;;;4893572;28;92860;-61
2022/07/02 02:38:37;;;;;;;4.30;3.10;;;11.50;99.90;11.40;101286.00;;;;4893685;28;109418;-61
2022/07/02 02:41:07;;;;;;;3.87;2.97;;;11.50;99.90;11.40;101284.00;;;;4875985;28;92703;-61
2022/07/02 02:43:35;;;;;;;5.23;3.33;;;11.40;99.90;11.40;101299.00;;;;4875238;28;92117;-60
2022/07/02 02:46:02;;;;;;;3.30;2.47;;;11.40;99.90;11.30;101290.00;;;;4892034;28;92854;-61
2022/07/02 02:48:28;;;;;;;3.50;2.57;;;11.40;99.90;11.30;101297.00;;;;4893519;28;96201;-61
2022/07/02 02:51:07;;;;;;;4.17;3.13;;;11.40;99.90;11.30;101300.00;;;;4883241;28;93883;-61
2022/07/02 02:53:33;;;;;;;4.00;2.93;;;11.30;99.90;11.30;101299.00;;;;4863061;28;94147;-61
2022/07/02 02:56:10;;;;;;;3.13;2.50;;;11.30;99.90;11.20;101292.00;;;;4881205;28;92924;-60
2022/07/02 02:58:35;;;;;;;4.90;2.90;;;11.30;99.90;11.20;101303.00;;;;4881394;28;92701;-61
2022/07/02 03:01:01;;;;;;;4.07;3.67;;;11.30;99.90;11.20;101299.00;;;;4889680;28;108376;-60
2022/07/02 03:03:27;;;;;;;4.43;2.87;;;11.20;99.90;11.20;101308.00;;;;4880686;28;93258;-60
2022/07/02 03:05:53;;;;;;;4.00;2.60;;;11.20;99.90;11.20;101306.00;;;;4896837;28;92794;-60
2022/07/02 03:08:20;;;;;;;5.33;2.27;;;11.20;99.90;11.20;101319.00;;;;4884480;28;92233;-61
2022/07/02 03:10:47;;;;;;;3.90;3.30;;;11.20;99.90;11.20;101315.00;;;;4878724;28;93073;-60
2022/07/02 03:13:14;;;;;;;5.27;3.10;;;11.20;99.90;11.20;101319.00;;;;4898135;28;93931;-61
2022/07/02 03:15:40;;;;;;;4.70;2.80;;;11.20;99.90;11.20;101321.00;;;;4899507;28;93922;-61
2022/07/02 03:18:06;;;;;;;3.57;3.27;;;11.20;99.90;11.20;101326.00;;;;4899866;28;92813;-61
2022/07/02 03:20:32;;;;;;;3.27;2.23;;;11.20;99.90;11.20;101334.00;;;;4901355;28;92832;-60
2022/07/02 03:22:59;;;;;;;4.33;2.93;;;11.20;99.90;11.20;101334.00;;;;4897379;28;95796;-60
2022/07/02 03:25:24;;;;;;;3.63;2.73;;;11.20;99.90;11.20;101328.00;;;;4899526;28;93203;-60
2022/07/02 03:28:19;;;;;;;7.17;3.00;;;11.20;99.90;11.20;101333.00;;;;4900663;28;93102;-61
2022/07/02 03:30:45;;;;;;;5.47;3.43;;;11.20;99.90;11.20;101332.00;;;;4898853;28;108495;-60
2022/07/02 03:33:11;;;;;;;3.30;2.77;;;11.20;99.90;11.20;101329.00;;;;4897732;28;92554;-61
2022/07/02 03:35:38;;;;;;;5.20;3.50;;;11.20;99.90;11.20;101339.00;;;;4899618;28;92878;-61
2022/07/02 03:38:03;;;;;;;3.53;3.23;;;11.20;99.90;11.30;101349.00;;;;4898385;28;106013;-61
2022/07/02 03:40:31;;;;;;;7.93;4.00;;;11.30;99.90;11.30;101346.00;;;;4898477;28;107370;-58
2022/07/02 03:42:56;;;;;;;8.23;3.77;;;11.30;99.90;11.30;101350.00;;;;4898994;28;93365;-61
2022/07/02 03:45:22;;;;;;;4.43;3.40;;;11.30;99.90;11.40;101344.00;;;;4897160;28;110437;-61
2022/07/02 03:51:51;;;;;;;5.00;2.93;;;11.40;99.90;11.50;101349.00;;;;4897786;28;92823;-58
2022/07/02 03:54:17;;;;;;;7.93;3.50;;;11.50;99.90;11.50;101351.00;;;;4897887;28;122283;-59
2022/07/02 03:56:42;;;;;;;5.73;3.33;;;11.50;99.90;11.60;101347.00;;;;4897496;28;112040;-60
2022/07/02 03:59:08;;;;;;;6.67;2.80;;;11.50;99.90;11.60;101352.00;;;;4898567;28;97742;-60
2022/07/02 04:01:34;;;;;;;4.63;2.97;;;11.60;99.90;11.70;101357.00;;;;4895482;28;108780;-60
2022/07/02 04:03:59;;;;;;;5.03;2.80;;;11.60;99.90;11.80;101350.00;;;;4894478;28;123655;-60
2022/07/02 04:06:25;;;;;;;4.17;2.77;;;11.80;99.90;11.90;101346.00;;;;4893493;28;115405;-60
2022/07/02 04:08:51;;;;;;;5.20;2.90;;;11.80;99.90;11.90;101349.00;;;;4894305;28;109609;-60
2022/07/02 04:11:17;;;;;;;4.80;2.83;;;11.90;99.90;12.00;101362.00;;;;4894494;28;108271;-59
2022/07/02 04:13:45;;;;;;;4.53;2.70;;;12.00;99.90;12.10;101369.00;;;;4894889;28;93762;-59
2022/07/02 04:16:11;;;;;;;3.23;2.93;;;12.10;99.90;12.20;101356.00;;;;4894537;28;111256;-59
2022/07/02 04:18:37;;;;;;;5.43;2.27;;;12.10;99.90;12.20;101352.00;;;;4894511;28;110834;-59
2022/07/02 04:21:05;;;;;;;3.93;3.20;;;12.20;99.90;12.30;101364.00;;;;4895247;28;106329;-60
2022/07/02 04:23:31;;;;;;;3.97;2.83;;;12.30;99.90;12.40;101365.00;;;;4896258;28;92616;-59
2022/07/02 04:25:56;;;;;;;3.37;3.00;;;12.30;99.90;12.50;101362.00;;;;4893704;28;121933;-60
2022/07/02 04:28:23;;;;;;;4.27;2.57;;;12.40;99.90;12.60;101368.00;;;;4894078;28;109933;-60
2022/07/02 04:30:49;;;;;;;2.80;2.60;;;12.50;99.90;12.70;101366.00;;;;4895696;28;93795;-60
2022/07/02 04:33:17;;;;;;;4.10;2.90;;;12.60;99.90;12.80;101368.00;;;;4895208;28;93289;-61
2022/07/02 04:35:43;;;;;;;3.23;2.93;;;12.70;99.90;12.90;101357.00;;;;4894400;28;92973;-59
2022/07/02 04:38:09;;;;;;;4.60;2.53;;;12.80;99.90;13.00;101364.00;;;;4895324;28;93213;-60
2022/07/02 04:40:34;;;;;;;3.70;2.23;;;12.90;99.90;13.20;101376.00;;;;4895789;28;92861;-61
2022/07/02 04:43:00;;;;;;;3.13;2.53;;;13.10;99.90;13.30;101379.00;;;;4894172;28;119164;-59
2022/07/02 04:45:26;;;;;;;2.67;2.40;;;13.20;99.90;13.50;101379.00;;;;4893074;28;123070;-60
2022/07/02 04:47:51;;;;;;;3.53;2.23;;;13.40;99.90;13.70;101374.00;;;;4873902;28;110900;-61
2022/07/02 04:50:17;;;;;;;4.87;2.30;;;13.50;99.90;13.80;101387.00;;;;4891258;28;108500;-60
2022/07/02 04:52:48;;;;;;;2.50;1.97;;;13.70;99.90;14.00;101388.00;;;;4891666;28;93636;-60
2022/07/02 04:55:14;;;;;;;2.70;2.40;;;13.80;99.90;14.10;101380.00;;;;4891020;28;93839;-61
2022/07/02 04:57:40;;;;;;;2.73;2.50;;;14.00;99.90;14.30;101391.00;;;;4891053;28;92989;-61
2022/07/02 05:00:08;;;;;;;2.57;1.70;;;14.20;99.90;14.50;101384.00;;;;4873645;28;93127;-60
2022/07/02 05:02:35;;;;;;;3.33;2.20;;;14.30;99.90;14.60;101388.00;;;;4889975;28;111347;-61
2022/07/02 05:05:01;;;;;;;2.07;1.80;;;14.50;99.90;14.80;101392.00;;;;4890424;28;109723;-60
2022/07/02 05:07:27;;;;;;;3.50;2.10;;;14.60;99.90;14.90;101400.00;;;;4890865;28;92969;-60
2022/07/02 05:09:53;;;;;;;4.40;2.20;;;14.80;99.90;15.10;101399.00;;;;4891515;28;92826;-61
2022/07/02 05:12:18;;;;;;;2.25;2.05;;;14.90;99.90;15.20;101403.00;;;;4891366;28;92757;-61
2022/07/02 05:14:44;;;;;;;1.90;1.60;;;15.10;99.90;15.40;101398.00;;;;4890947;28;93070;-61
2022/07/02 05:17:10;;;;;;;2.33;1.38;;;15.20;99.90;15.50;101406.00;;;;4890187;28;93228;-61
2022/07/02 05:19:36;;;;;;;1.45;1.10;;;15.40;99.90;15.60;101408.00;;;;4890916;28;93706;-60
2022/07/02 05:22:02;;;;;;;2.00;1.77;;;15.50;99.90;15.80;101415.00;;;;4890108;28;123255;-61
2022/07/02 05:24:28;;;;;;;1.58;1.10;;;15.70;99.90;16.00;101420.00;;;;4889361;28;115022;-61
2022/07/02 05:26:53;;;;;;;1.73;1.63;;;15.80;99.90;16.10;101413.00;;;;4890244;28;92992;-61
2022/07/02 05:29:19;;;;;;;2.28;1.13;;;16.00;99.90;16.30;101416.00;;;;4889819;28;108375;-61
2022/07/02 05:31:45;;;;;;;1.83;1.30;;;16.20;99.90;16.50;101415.00;;;;4891153;28;93275;-61
2022/07/02 05:34:10;;;;;;;2.40;1.45;;;16.30;99.90;16.70;101421.00;;;;4888906;28;122700;-61
2022/07/02 05:36:42;;;;;;;5.10;1.25;;;16.50;99.90;16.80;101421.00;;;;4890142;28;101662;-61
2022/07/02 05:39:08;;;;;;;4.53;1.90;;;16.60;99.90;16.90;101421.00;;;;4889011;28;107944;-61
2022/07/02 05:41:34;;;;;;;2.80;1.65;;;16.80;99.90;17.10;101432.00;;;;4890001;28;122167;-60
2022/07/02 05:43:59;;;;;;;2.85;1.45;;;17.00;99.90;17.30;101428.00;;;;4890630;28;93813;-60
2022/07/02 05:46:25;;;;;;;2.50;1.83;;;17.10;99.90;17.50;101435.00;;;;4889847;28;111114;-60
2022/07/02 05:48:51;;;;;;;1.05;0.95;;;17.30;99.90;17.60;101438.00;;;;4889748;28;107603;-61
2022/07/02 05:51:16;;;;;;;2.55;1.10;;;17.50;99.90;17.80;101429.00;;;;4890200;28;121152;-60
2022/07/02 05:53:42;;;;;;;2.25;1.27;;;17.60;99.90;17.90;101438.00;;;;4889528;28;122225;-62
2022/07/02 05:56:08;;;;;;;7.30;1.45;;;17.80;99.90;18.00;101438.00;;;;4890283;28;93191;-61
2022/07/02 05:58:33;;;;;;;1.15;1.05;;;17.90;99.90;18.10;101436.00;;;;4889831;28;108804;-62
2022/07/02 06:00:59;;;;;;;2.05;1.15;;;18.00;99.90;18.20;101435.00;;;;4889613;28;116985;-62
2022/07/02 06:03:25;;;;;;;1.23;0.85;;;18.10;99.90;18.30;101435.00;;;;4889516;28;121843;-61
2022/07/02 06:08:39;;;;;;;3.25;1.80;;;18.30;99.90;18.60;101443.00;;;;4889442;28;93831;-61
2022/07/02 06:11:06;;;;;;;0.90;0.80;;;18.50;99.90;18.80;101449.00;;;;4891076;28;92713;-61
2022/07/02 06:13:32;;;;;;;1.30;1.15;;;18.60;99.90;19.00;101445.00;;;;4890349;28;92908;-62
2022/07/02 06:15:58;;;;;;;4.47;0.70;;;18.80;99.90;19.20;101456.00;;;;4890936;28;93276;-62
2022/07/02 06:18:24;;;;;;;1.05;0.95;;;19.00;99.90;19.40;101461.00;;;;4891767;28;94290;-63
2022/07/02 06:20:51;;;;;;;2.05;1.42;;;19.20;99.90;19.70;101456.00;;;;4890414;28;93208;-62
2022/07/02 06:23:19;;;;;;;2.20;1.27;;;19.70;99.90;19.90;101463.00;;;;4889204;28;92800;-62
2022/07/02 06:25:45;;;;;;;1.02;0.88;;;19.70;99.90;20.00;101456.00;;;;4890295;28;92145;-62
2022/07/02 06:28:11;;;;;;;1.08;0.98;;;19.80;99.90;20.20;101461.00;;;;4889172;28;108571;-62
2022/07/02 06:30:36;;;;;;;1.02;0.93;;;20.00;99.90;20.40;101461.00;;;;4871923;28;93795;-62
2022/07/02 06:33:02;;;;;;;0.75;0.57;;;20.20;99.90;20.60;101467.00;;;;4888376;28;121759;-62
2022/07/02 06:35:28;;;;;;;0.40;0.40;;;20.40;99.90;20.70;101455.00;;;;4890349;28;92935;-62
2022/07/02 06:37:54;;;;;;;0.35;0.35;;;20.50;99.90;20.90;101468.00;;;;4890058;28;93060;-62
2022/07/02 06:40:20;;;;;;;3.92;1.17;;;20.70;99.90;21.10;101467.00;;;;4888537;28;122845;-60
2022/07/02 06:42:45;;;;;;;0.47;0.47;;;20.90;99.90;21.20;101476.00;;;;4872045;28;93948;-59
2022/07/02 06:45:15;;;;;;;1.23;0.63;;;21.00;99.90;21.40;101475.00;;;;4889876;28;92955;-60
2022/07/02 06:47:42;;;;;;;1.05;0.90;;;21.20;99.90;21.60;101474.00;;;;4888504;28;109677;-60
2022/07/02 06:50:10;;;;;;;2.47;0.90;;;21.40;99.90;21.80;101485.00;;;;4889789;28;92696;-60
2022/07/02 06:52:36;;;;;;;1.02;0.93;;;21.60;99.90;22.00;101487.00;;;;4889487;28;92935;-60
2022/07/02 06:55:08;;;;;;;0.65;0.63;;;21.80;99.90;22.30;101489.00;;;;4890465;28;92870;-61
2022/07/02 06:57:35;;;;;;;1.20;1.10;;;22.00;99.90;22.50;101479.00;;;;4889397;28;94184;-61
2022/07/02 07:00:01;;;;;;;1.20;0.73;;;22.30;99.90;22.80;101482.00;;;;4889563;28;93786;-61
2022/07/02 07:02:26;;;;;;;1.55;0.63;;;22.50;99.90;23.10;101487.00;;;;4889230;28;122615;-61
2022/07/02 07:04:52;;;;;;;0.98;0.88;;;22.80;99.90;23.30;101483.00;;;;4889073;28;110462;-61
2022/07/02 07:07:19;;;;;;;1.60;1.00;;;23.00;99.50;23.30;101494.00;;;;4890047;28;93323;-61
2022/07/02 07:09:45;;;;;;;1.15;0.70;;;23.20;95.90;23.30;101488.00;;;;4888749;28;93350;-61
2022/07/02 07:12:11;;;;;;;1.08;0.70;;;23.20;95.70;23.40;101492.00;;;;4889416;28;106519;-61
2022/07/02 07:14:36;;;;;;;1.90;0.73;;;23.20;95.10;23.60;101490.00;;;;4889386;28;96912;-61
2022/07/02 07:17:15;;;;;;;0.47;0.47;;;23.30;95.20;23.70;101492.00;;;;4888200;28;107839;-61
2022/07/02 07:19:41;;;;;;;0.40;0.40;;;23.50;94.30;23.90;101491.00;;;;4887931;28;123406;-61
2022/07/02 07:22:09;;;;;;;0.90;0.68;;;23.70;94.00;24.20;101500.00;;;;4888952;28;93753;-61
2022/07/02 07:24:34;;;;;;;0.80;0.63;;;23.90;93.50;24.40;101500.00;;;;4890143;28;92908;-61
2022/07/02 07:27:00;;;;;;;0.93;0.82;;;24.10;92.20;24.60;101500.00;;;;4888119;28;109079;-61
2022/07/02 07:29:25;;;;;;;1.15;0.50;;;24.30;90.60;24.60;101503.00;;;;4888208;28;117957;-60
2022/07/02 07:31:51;;;;;;;3.90;1.02;;;24.40;86.30;24.60;101499.00;;;;4888438;28;120046;-60
2022/07/02 07:34:17;;;;;;;1.60;0.93;;;24.50;86.30;24.70;101503.00;;;;4890633;28;92736;-61
2022/07/02 07:36:43;;;;;;;1.13;1.00;;;24.50;86.50;24.90;101515.00;;;;4891426;28;108173;-61
2022/07/02 07:39:08;;;;;;;1.40;1.23;;;24.70;84.10;25.10;101505.00;;;;4891414;28;113367;-61
2022/07/02 07:41:35;;;;;;;4.13;0.90;;;24.90;82.90;25.30;101516.00;;;;4893626;28;93228;-61
2022/07/02 07:44:01;;;;;;;1.08;0.73;;;25.10;80.50;25.40;101513.00;;;;4907127;28;92801;-60
2022/07/02 07:46:27;;;;;;;1.00;0.70;;;25.20;80.00;25.50;101511.00;;;;4892505;28;94168;-61
2022/07/02 07:48:53;;;;;;;1.85;0.88;;;25.30;79.10;25.80;101514.00;;;;4891472;28;104002;-63
2022/07/02 07:51:19;;;;;;;2.38;0.60;;;25.50;78.20;26.00;101517.00;;;;4892846;28;93730;-61
2022/07/02 07:53:45;;;;;;;2.25;0.80;;;25.70;76.90;26.30;101527.00;;;;4892580;28;93058;-61
2022/07/02 07:56:19;;;;;;;1.40;0.95;;;26.00;76.10;26.60;101517.00;;;;4892416;28;92724;-61
2022/07/02 07:58:46;;;;;;;1.02;0.95;;;26.30;74.40;26.90;101526.00;;;;4893076;28;93622;-61
2022/07/02 08:01:11;;;;;;;0.80;0.70;;;26.60;73.00;27.10;101523.00;;;;4872007;28;93383;-62
2022/07/02 08:03:37;;;;;;;0.90;0.90;;;26.80;69.30;27.20;101517.00;;;;4893295;28;102012;-62
2022/07/02 08:06:03;;;;;;;2.15;0.82;;;26.90;68.20;27.30;101519.00;;;;4875234;28;93059;-62
2022/07/02 08:08:29;;;;;;;0.77;0.77;;;27.10;62.30;27.30;101513.00;;;;4892319;28;93863;-62
2022/07/02 08:10:55;;;;;;;4.13;0.80;;;27.10;59.00;27.00;101519.00;;;;4891129;28;98300;-62
2022/07/02 08:13:21;;;;;;;2.78;0.75;;;27.00;57.30;26.90;101511.00;;;;4890200;28;99837;-62
2022/07/02 08:15:46;;;;;;;0.73;0.73;;;26.70;58.30;27.10;101517.00;;;;4892011;28;108954;-62
2022/07/02 08:18:12;;;;;;;6.43;0.77;;;26.80;58.90;27.40;101525.00;;;;4883424;28;123676;-63
2022/07/02 08:20:38;;;;;;;0.75;0.40;;;27.00;59.10;27.70;101523.00;;;;4890893;28;109681;-62
2022/07/02 08:23:10;;;;;;;0.50;0.40;;;27.30;58.10;27.90;101520.00;;;;4891247;28;110632;-62
2022/07/02 08:25:36;;;;;;;0.88;0.52;;;27.60;57.50;28.10;101521.00;;;;4891822;28;108893;-63
2022/07/02 08:28:07;;;;;;;0.40;0.30;;;27.80;56.30;28.20;101523.00;;;;4891193;28;118300;-63
2022/07/02 08:30:33;;;;;;;0.63;0.40;;;27.90;54.80;28.30;101534.00;;;;4892003;28;98962;-63
2022/07/02 08:32:59;;;;;;;0.40;0.40;;;28.00;54.00;28.50;101522.00;;;;4892239;28;95206;-63
2022/07/02 08:35:25;;;;;;;1.00;0.90;;;28.20;53.50;28.80;101530.00;;;;4890685;28;107993;-63
2022/07/02 08:37:51;;;;;;;0.38;0.38;;;28.40;52.90;29.00;101526.00;;;;4892480;28;94917;-62
2022/07/02 08:40:23;;;;;;;0.30;0.30;;;28.70;52.30;29.30;101524.00;;;;4891459;28;94135;-63
2022/07/02 08:42:51;;;;;;;0.75;0.50;;;28.90;51.60;29.50;101524.00;;;;4891458;28;92793;-62
2022/07/02 08:45:21;;;;;;;0.40;0.40;;;29.10;50.10;29.60;101519.00;;;;4905899;28;92875;-63
2022/07/02 08:47:48;;;;;;;0.50;0.30;;;29.30;48.50;29.70;101516.00;;;;4890446;28;115217;-63
2022/07/02 08:50:16;;;;;;;0.88;0.40;;;29.40;47.70;29.80;101516.00;;;;4873702;28;92963;-62
2022/07/02 08:52:44;;;;;;;1.17;0.50;;;29.50;48.00;29.90;101516.00;;;;4874318;28;92237;-63
2022/07/02 08:55:10;;;;;;;0.50;0.45;;;29.60;48.00;29.90;101507.00;;;;4892080;28;93060;-63
2022/07/02 08:57:38;;;;;;;0.50;0.30;;;29.70;47.00;30.00;101516.00;;;;4873365;28;93394;-62
2022/07/02 09:00:05;;;;;;;0.85;0.65;;;29.60;47.20;30.00;101514.00;;;;4872000;28;120791;-63
2022/07/02 09:02:31;;;;;;;0.50;0.40;;;29.70;46.60;30.00;101511.00;;;;4891253;28;100997;-63
2022/07/02 09:05:00;;;;;;;0.35;0.20;;;29.70;46.10;30.10;101517.00;;;;4873247;28;108504;-63
2022/07/02 09:07:26;;;;;;;0.82;0.50;;;29.80;45.60;30.20;101520.00;;;;4873447;28;108693;-63
2022/07/02 09:09:52;;;;;;;0.70;0.45;;;29.90;43.20;30.10;101510.00;;;;4872220;28;123692;-63
2022/07/02 09:12:18;;;;;;;0.35;0.35;;;29.80;42.50;30.00;101512.00;;;;4872220;28;110463;-63
2022/07/02 09:14:44;;;;;;;0.75;0.65;;;29.80;42.80;30.10;101517.00;;;;4890888;28;104726;-63
2022/07/02 09:17:12;;;;;;;0.38;0.38;;;29.80;43.20;30.20;101517.00;;;;4890630;28;122423;-63
2022/07/02 09:19:39;;;;;;;1.65;0.30;;;29.80;43.50;30.40;101510.00;;;;4872694;28;118304;-63
2022/07/02 09:22:08;;;;;;;0.55;0.45;;;30.00;43.40;30.50;101515.00;;;;4873377;28;92886;-63
2022/07/02 09:24:37;;;;;;;0.57;0.50;;;30.10;42.90;30.60;101511.00;;;;4891555;28;93891;-63
2022/07/02 09:27:14;;;;;;;1.38;0.40;;;30.20;41.90;30.60;101505.00;;;;4890915;28;92901;-63
2022/07/02 09:29:50;;;;;;;0.95;0.38;;;30.30;40.20;30.70;101503.00;;;;4891321;28;92852;-63
2022/07/02 09:32:17;;;;;;;0.65;0.25;;;30.30;37.70;30.50;101500.00;;;;4891529;28;92686;-62
2022/07/02 09:34:49;;;;;;;0.52;0.52;;;30.20;37.70;30.60;101500.00;;;;4890965;28;92837;-63
2022/07/02 09:37:19;;;;;;;0.90;0.65;;;30.20;39.10;30.80;101494.00;;;;4891235;28;94116;-63
2022/07/02 09:39:47;;;;;;;0.40;0.30;;;30.30;39.40;31.00;101489.00;;;;4890377;28;110097;-63
2022/07/02 09:42:28;;;;;;;0.40;0.30;;;30.50;39.40;31.10;101494.00;;;;4890990;28;92224;-63
2022/07/02 09:44:55;;;;;;;0.38;0.20;;;30.70;39.40;31.30;101490.00;;;;4891084;28;92852;-63
2022/07/02 09:47:39;;;;;;;0.35;0.25;;;30.80;38.20;31.40;101492.00;;;;4890802;28;93459;-63
2022/07/02 09:50:09;;;;;;;0.68;0.40;;;30.90;38.60;31.60;101494.00;;;;4890627;28;94065;-63
2022/07/02 09:52:56;;;;;;;0.22;0.22;;;31.10;39.00;31.90;101497.00;;;;4891689;28;92779;-63
2022/07/02 09:55:30;;;;;;;0.68;0.30;;;31.30;38.10;32.00;101500.00;;;;4891093;28;92951;-63
2022/07/02 09:58:00;;;;;;;0.65;0.47;;;31.50;37.80;32.10;101485.00;;;;4890723;28;92803;-63
2022/07/02 10:00:29;;;;;;;0.32;0.20;;;31.60;37.60;32.20;101489.00;;;;4890255;28;92954;-63
2022/07/02 10:02:57;;;;;;;0.50;0.35;;;31.70;37.60;32.30;101488.00;;;;4891354;28;92766;-64
2022/07/02 10:05:31;;;;;;;0.25;0.25;;;31.80;37.10;32.40;101501.00;;;;4891409;28;95125;-63
2022/07/02 10:07:59;;;;;;;0.28;0.28;;;31.90;37.10;32.30;101498.00;;;;4890579;28;93219;-64
2022/07/02 10:10:36;;;;;;;0.10;0.10;;;31.80;36.70;32.10;101515.00;;;;4891304;28;92960;-63
2022/07/02 10:13:02;;;;;;;0.20;0.20;;;31.80;36.40;31.70;101508.00;;;;4890421;28;93124;-63
2022/07/02 10:15:31;;;;;;;0.38;0.30;;;31.40;35.90;31.30;101508.00;;;;4890986;28;94013;-62
2022/07/02 10:18:00;;;;;;;0.30;0.30;;;31.00;36.20;30.80;101501.00;;;;4890978;28;93168;-63
2022/07/02 10:20:28;;;;;;;0.70;0.52;;;30.70;36.20;30.60;101505.00;;;;4890616;28;92902;-63
2022/07/02 10:22:58;;;;;;;0.30;0.25;;;30.30;36.80;30.50;101504.00;;;;4890732;28;93046;-63
2022/07/02 10:25:24;;;;;;;0.20;0.20;;;30.20;37.40;30.70;101495.00;;;;4890311;28;92933;-64
2022/07/02 10:27:57;;;;;;;0.63;0.50;;;30.20;37.10;30.90;101494.00;;;;4889389;28;93028;-63
2022/07/02 10:30:29;;;;;;;0.52;0.40;;;30.30;37.00;31.20;101495.00;;;;4890609;28;93156;-63
2022/07/02 10:33:21;;;;;;;0.20;0.20;;;30.60;37.00;31.30;101489.00;;;;4891203;28;91960;-63
2022/07/02 10:35:49;;;;;;;0.43;0.38;;;30.70;36.10;31.20;101488.00;;;;4863645;28;92643;-63
2022/07/02 10:38:15;;;;;;;0.38;0.35;;;30.70;36.70;31.20;101492.00;;;;4889870;28;93457;-63
2022/07/02 10:40:50;;;;;;;0.40;0.30;;;30.70;37.00;31.10;101484.00;;;;4889818;28;93800;-63
2022/07/02 10:43:19;;;;;;;0.30;0.30;;;30.60;36.20;30.70;101484.00;;;;4890528;28;93345;-63
2022/07/02 10:45:48;;;;;;;0.20;0.20;;;30.30;35.70;30.20;101482.00;;;;4890664;28;92952;-63
2022/07/02 10:48:14;;;;;;;0.70;0.50;;;29.90;35.90;29.80;101480.00;;;;4889085;28;122544;-63
2022/07/02 10:50:45;;;;;;;0.57;0.55;;;29.50;36.40;29.80;101474.00;;;;4890210;28;93823;-63
2022/07/02 10:53:20;;;;;;;1.58;0.85;;;29.40;37.10;30.00;101479.00;;;;4890347;28;92941;-63
2022/07/02 10:55:51;;;;;;;0.45;0.35;;;29.40;37.00;30.20;101475.00;;;;4890818;28;93084;-63